0301 — QST0301 — position and weather

sailwx.info

Track history (hours):
 
Tides and Currents Weather Stations Pressure Air Temp Water Temp Dewpoint Dewpoint Depression Visibility Wind Speed Wind Dir Waves Ship Positions

0301

Last reported at 2018-Feb-02 18:48 UTC. Time now 2018-Feb-20 21:37 UTC.
Position N 34°07' W 119°12'.
Warning: this ship's position is 18 days out of date.

Length 13 m; draft 1 m.

Type: Military. MMSI: 369970282.

Date/timePositionNaut miles runAvg speedWind from/ knotsBaromVisibWave heightAir tempDewpointWater temp
2018-Feb-02 18:48N 34°07' W 119°12'3 9.0
2018-Feb-02 18:26N 34°06' W 119°08'0 0.5
2018-Feb-02 17:58N 34°06' W 119°09'0 0.3
2018-Feb-02 17:29N 34°06' W 119°09'1 1.7
2018-Feb-02 16:59N 34°06' W 119°08'5 9.0
2018-Feb-02 16:28N 34°08' W 119°13'  
2018-Jan-30 23:46N 34°09' W 119°13'1 2.6
2018-Jan-30 23:27N 34°09' W 119°13'1 2.1
2018-Jan-30 22:59N 34°10' W 119°13'4 9.0
2018-Jan-30 22:30N 34°06' W 119°10'1 1.2
2018-Jan-30 21:26N 34°05' W 119°10'0 0.4
2018-Jan-30 20:58N 34°05' W 119°10'0 0.4
2018-Jan-30 20:29N 34°05' W 119°10'0 0.8
2018-Jan-30 20:00N 34°05' W 119°11'0 0.4
2018-Jan-30 19:29N 34°05' W 119°11'1 2.3
2018-Jan-30 19:00N 34°06' W 119°10'1 1.0
2018-Jan-30 18:28N 34°06' W 119°10'0 0.2
2018-Jan-30 17:59N 34°06' W 119°10'0 0.5
2018-Jan-30 17:28N 34°06' W 119°10'0 0.4
2018-Jan-30 17:00N 34°06' W 119°10'0 0.4
2018-Jan-30 16:31N 34°06' W 119°10'0 0.6
2018-Jan-30 15:57N 34°06' W 119°10'0 0.5
2018-Jan-30 15:28N 34°06' W 119°10'0 0.3
2018-Jan-30 15:00N 34°06' W 119°09'0 0.5
2018-Jan-30 14:29N 34°06' W 119°10'4 3.8
2018-Jan-30 13:28N 34°09' W 119°13'0 0.0
2018-Jan-29 23:49N 34°09' W 119°13'2 4.9
2018-Jan-29 23:30N 34°08' W 119°12'3 5.3
2018-Jan-29 22:59N 34°06' W 119°10'0 0.7
2018-Jan-29 22:30N 34°06' W 119°10'2 4.8
2018-Jan-29 21:59N 34°08' W 119°12'2 3.7
2018-Jan-29 21:30N 34°09' W 119°13'0 0.0
2018-Jan-29 21:00N 34°09' W 119°13'0 0.0
2018-Jan-29 20:30N 34°09' W 119°13'0 0.0
2018-Jan-29 20:00N 34°09' W 119°13'0 0.0
2018-Jan-29 19:30N 34°09' W 119°13'0 0.0
2018-Jan-29 19:00N 34°09' W 119°13'0 0.0
2018-Jan-29 18:30N 34°09' W 119°13'0 0.0
2018-Jan-29 18:00N 34°09' W 119°13'0 0.0
2018-Jan-29 17:30N 34°09' W 119°13'0 0.0
2018-Jan-27 23:32N 34°09' W 119°13'0 0.0
2018-Jan-27 23:30N 34°09' W 119°13'4 8.2
2018-Jan-27 23:00N 34°06' W 119°10'0 0.2
2018-Jan-27 22:27N 34°06' W 119°10'0 0.3
2018-Jan-27 22:00N 34°06' W 119°10'0 0.6
2018-Jan-27 21:27N 34°06' W 119°10'0 0.5
2018-Jan-27 21:00N 34°06' W 119°09'1 1.4
2018-Jan-27 20:28N 34°06' W 119°10'0 0.6
2018-Jan-27 20:00N 34°06' W 119°10'0 0.7
2018-Jan-27 19:29N 34°06' W 119°10'1 1.1
2018-Jan-27 18:56N 34°05' W 119°10'0 0.6
2018-Jan-27 18:30N 34°06' W 119°10'0 0.7
2018-Jan-27 18:00N 34°06' W 119°10'0 0.5
2018-Jan-27 17:29N 34°06' W 119°10'0 0.3
2018-Jan-27 16:59N 34°06' W 119°10'0 1.0
2018-Jan-27 16:30N 34°05' W 119°10'0 0.7
2018-Jan-27 15:59N 34°06' W 119°10'0 0.8
2018-Jan-27 15:29N 34°06' W 119°09'1 0.0
2018-Jan-26 16:32N 34°06' W 119°10'1 8.5
2018-Jan-26 16:28N 34°06' W 119°10'0 0.7
2018-Jan-26 16:00N 34°06' W 119°09'3 5.4
2018-Jan-26 15:30N 34°07' W 119°12'2 0.1
2018-Jan-25 21:20N 34°09' W 119°13'1 2.3
2018-Jan-25 20:58N 34°10' W 119°13'0 0.1
2018-Jan-25 20:26N 34°10' W 119°13'5 9.7
2018-Jan-25 19:58N 34°06' W 119°10'1 1.2
2018-Jan-25 19:29N 34°06' W 119°09'1 1.2
2018-Jan-25 19:00N 34°05' W 119°10'0 0.5
2018-Jan-25 18:30N 34°06' W 119°10'0 0.5
2018-Jan-25 17:59N 34°06' W 119°10'0 0.6
2018-Jan-25 17:30N 34°06' W 119°10'0 0.5
2018-Jan-25 17:00N 34°05' W 119°10'0 0.0
2018-Jan-25 16:30N 34°05' W 119°10'0 0.7
2018-Jan-25 16:00N 34°06' W 119°10'0 0.4
2018-Jan-25 15:30N 34°06' W 119°10'4 7.5
2018-Jan-25 15:00N 34°09' W 119°13'0 0.0
2018-Jan-24 23:04N 34°09' W 119°13'0 2.6
2018-Jan-24 22:58N 34°09' W 119°13'4 8.2
2018-Jan-24 22:29N 34°06' W 119°09'0 0.1
2018-Jan-24 21:58N 34°06' W 119°09'0 0.4
2018-Jan-24 21:30N 34°06' W 119°10'0 0.4
2018-Jan-24 20:58N 34°06' W 119°10'1 1.0
2018-Jan-24 20:29N 34°06' W 119°09'0 0.3
2018-Jan-24 20:00N 34°06' W 119°09'0 0.4
2018-Jan-24 19:30N 34°06' W 119°10'0 0.8
2018-Jan-24 18:59N 34°06' W 119°10'0 0.7
2018-Jan-24 18:30N 34°06' W 119°10'1 1.3
2018-Jan-24 17:59N 34°06' W 119°10'0 0.0
2018-Jan-24 17:28N 34°06' W 119°10'0 0.5
2018-Jan-24 17:00N 34°06' W 119°09'3 5.3
2018-Jan-24 16:30N 34°05' W 119°06'2 4.7
2018-Jan-24 15:59N 34°05' W 119°09'0 0.7
2018-Jan-24 15:25N 34°06' W 119°09'4 9.6
2018-Jan-24 15:00N 34°09' W 119°13'  
Track history (hours):
 
Tides and Currents Weather Stations Pressure Air Temp Water Temp Dewpoint Dewpoint Depression Visibility Wind Speed Wind Dir Waves Ship Positions

0301

Last reported at 2018-Feb-02 18:48 UTC. Time now 2018-Feb-20 21:37 UTC.
Position N 34°07' W 119°12'.
Warning: this ship's position is 18 days out of date.

Length 13 m; draft 1 m.

Type: Military. MMSI: 369970282.

Date/timePositionNaut miles runAvg speedWind from/ knotsBaromVisibWave heightAir tempDewpointWater temp
2018-Feb-02 18:48N 34°07' W 119°12'3 9.0
2018-Feb-02 18:26N 34°06' W 119°08'0 0.5
2018-Feb-02 17:58N 34°06' W 119°09'0 0.3
2018-Feb-02 17:29N 34°06' W 119°09'1 1.7
2018-Feb-02 16:59N 34°06' W 119°08'5 9.0
2018-Feb-02 16:28N 34°08' W 119°13'  
2018-Jan-30 23:46N 34°09' W 119°13'1 2.6
2018-Jan-30 23:27N 34°09' W 119°13'1 2.1
2018-Jan-30 22:59N 34°10' W 119°13'4 9.0
2018-Jan-30 22:30N 34°06' W 119°10'1 1.2
2018-Jan-30 21:26N 34°05' W 119°10'0 0.4
2018-Jan-30 20:58N 34°05' W 119°10'0 0.4
2018-Jan-30 20:29N 34°05' W 119°10'0 0.8
2018-Jan-30 20:00N 34°05' W 119°11'0 0.4
2018-Jan-30 19:29N 34°05' W 119°11'1 2.3
2018-Jan-30 19:00N 34°06' W 119°10'1 1.0
2018-Jan-30 18:28N 34°06' W 119°10'0 0.2
2018-Jan-30 17:59N 34°06' W 119°10'0 0.5
2018-Jan-30 17:28N 34°06' W 119°10'0 0.4
2018-Jan-30 17:00N 34°06' W 119°10'0 0.4
2018-Jan-30 16:31N 34°06' W 119°10'0 0.6
2018-Jan-30 15:57N 34°06' W 119°10'0 0.5
2018-Jan-30 15:28N 34°06' W 119°10'0 0.3
2018-Jan-30 15:00N 34°06' W 119°09'0 0.5
2018-Jan-30 14:29N 34°06' W 119°10'4 3.8
2018-Jan-30 13:28N 34°09' W 119°13'0 0.0
2018-Jan-29 23:49N 34°09' W 119°13'2 4.9
2018-Jan-29 23:30N 34°08' W 119°12'3 5.3
2018-Jan-29 22:59N 34°06' W 119°10'0 0.7
2018-Jan-29 22:30N 34°06' W 119°10'2 4.8
2018-Jan-29 21:59N 34°08' W 119°12'2 3.7
2018-Jan-29 21:30N 34°09' W 119°13'0 0.0
2018-Jan-29 21:00N 34°09' W 119°13'0 0.0
2018-Jan-29 20:30N 34°09' W 119°13'0 0.0
2018-Jan-29 20:00N 34°09' W 119°13'0 0.0
2018-Jan-29 19:30N 34°09' W 119°13'0 0.0
2018-Jan-29 19:00N 34°09' W 119°13'0 0.0
2018-Jan-29 18:30N 34°09' W 119°13'0 0.0
2018-Jan-29 18:00N 34°09' W 119°13'0 0.0
2018-Jan-29 17:30N 34°09' W 119°13'0 0.0
2018-Jan-27 23:32N 34°09' W 119°13'0 0.0
2018-Jan-27 23:30N 34°09' W 119°13'4 8.2
2018-Jan-27 23:00N 34°06' W 119°10'0 0.2
2018-Jan-27 22:27N 34°06' W 119°10'0 0.3
2018-Jan-27 22:00N 34°06' W 119°10'0 0.6
2018-Jan-27 21:27N 34°06' W 119°10'0 0.5
2018-Jan-27 21:00N 34°06' W 119°09'1 1.4
2018-Jan-27 20:28N 34°06' W 119°10'0 0.6
2018-Jan-27 20:00N 34°06' W 119°10'0 0.7
2018-Jan-27 19:29N 34°06' W 119°10'1 1.1
2018-Jan-27 18:56N 34°05' W 119°10'0 0.6
2018-Jan-27 18:30N 34°06' W 119°10'0 0.7
2018-Jan-27 18:00N 34°06' W 119°10'0 0.5
2018-Jan-27 17:29N 34°06' W 119°10'0 0.3
2018-Jan-27 16:59N 34°06' W 119°10'0 1.0
2018-Jan-27 16:30N 34°05' W 119°10'0 0.7
2018-Jan-27 15:59N 34°06' W 119°10'0 0.8
2018-Jan-27 15:29N 34°06' W 119°09'1 0.0
2018-Jan-26 16:32N 34°06' W 119°10'1 8.5
2018-Jan-26 16:28N 34°06' W 119°10'0 0.7
2018-Jan-26 16:00N 34°06' W 119°09'3 5.4
2018-Jan-26 15:30N 34°07' W 119°12'2 0.1
2018-Jan-25 21:20N 34°09' W 119°13'1 2.3
2018-Jan-25 20:58N 34°10' W 119°13'0 0.1
2018-Jan-25 20:26N 34°10' W 119°13'5 9.7
2018-Jan-25 19:58N 34°06' W 119°10'1 1.2
2018-Jan-25 19:29N 34°06' W 119°09'1 1.2
2018-Jan-25 19:00N 34°05' W 119°10'0 0.5
2018-Jan-25 18:30N 34°06' W 119°10'0 0.5
2018-Jan-25 17:59N 34°06' W 119°10'0 0.6
2018-Jan-25 17:30N 34°06' W 119°10'0 0.5
2018-Jan-25 17:00N 34°05' W 119°10'0 0.0
2018-Jan-25 16:30N 34°05' W 119°10'0 0.7
2018-Jan-25 16:00N 34°06' W 119°10'0 0.4
2018-Jan-25 15:30N 34°06' W 119°10'4 7.5
2018-Jan-25 15:00N 34°09' W 119°13'0 0.0
2018-Jan-24 23:04N 34°09' W 119°13'0 2.6
2018-Jan-24 22:58N 34°09' W 119°13'4 8.2
2018-Jan-24 22:29N 34°06' W 119°09'0 0.1
2018-Jan-24 21:58N 34°06' W 119°09'0 0.4
2018-Jan-24 21:30N 34°06' W 119°10'0 0.4
2018-Jan-24 20:58N 34°06' W 119°10'1 1.0
2018-Jan-24 20:29N 34°06' W 119°09'0 0.3
2018-Jan-24 20:00N 34°06' W 119°09'0 0.4
2018-Jan-24 19:30N 34°06' W 119°10'0 0.8
2018-Jan-24 18:59N 34°06' W 119°10'0 0.7
2018-Jan-24 18:30N 34°06' W 119°10'1 1.3
2018-Jan-24 17:59N 34°06' W 119°10'0 0.0
2018-Jan-24 17:28N 34°06' W 119°10'0 0.5
2018-Jan-24 17:00N 34°06' W 119°09'3 5.3
2018-Jan-24 16:30N 34°05' W 119°06'2 4.7
2018-Jan-24 15:59N 34°05' W 119°09'0 0.7
2018-Jan-24 15:25N 34°06' W 119°09'4 9.6
2018-Jan-24 15:00N 34°09' W 119°13'  

Dump ship's entire track history